Pagrindinis puslapis
METAR-TAF:

METAR-TAF

Oro uostai :

Gökçeada, Turkija

platuma: 40-12-04N, ilguma: 25-52-56E, Aukštis: 22 m

Dabartinis oras

Ataskaita buvo paskelbta 1 valandą ir 4 minutes, ne 16:50 UTC
Vėjas 4 kt iš Rytų/Šiaurės Rytų
Temperatūra 9°C
Drėgmė 61%
Slėgis 1027 hPa
Matomumas 10 km arba daugiau
Išsisklaidę debesys ne aukštis 3000 ft

METAR: LTFK 281650Z 06004KT 9999 SCT030 09/02 Q1027

Laikas: 20:54 (17:54 UTC)

Prognozė

Ataskaita buvo paskelbta 4 valandos ir 14 minutes, ne 13:40 UTC
Prognozė galioja nuo 28 metu 15 UTC su 28 metu 24 UTC
Vėjas 15 kt iš Šiaurės/Šiaurės Rytų su gūsio iki 25 kt
Matomumas 10 km arba daugiau
Išsisklaidę debesys ne aukštis 3500 ft

TAF: LTFK 281340Z 2815/2824 03015G25KT 9999 SCT035

Orai ataskaitas ir orų prognozės (METAR, TAF).

turimą stotys yra geltonos ir raudonos taškus žemėlapyje.

Perkelti pele per norėdami pamatyti stoties vardą.

Tada spustelėkite, norėdami matyti oro stebėjimo ir prognozės.

Norėdami pakeisti žemėlapį: spustelėkite ant žalios mygtukų su juodo kryžiaus žemyn,; žalią mygtuką su brūkšneliu, jei norite nutolinti; arba žalių rodyklių gretimoms žemėlapius.


METAR-TAF: